sensor_id;sensor_type;location;lat;lon;timestamp;pressure;altitude;pressure_sealevel;temperature;humidity
70968;BME280;58629;48.808;8.820;2023-04-26T00:00:36;97175.38;;;5.63;100.00
70968;BME280;58629;48.808;8.820;2023-04-26T00:03:06;97164.88;;;5.59;100.00
70968;BME280;58629;48.808;8.820;2023-04-26T00:05:31;97170.91;;;5.60;100.00
70968;BME280;58629;48.808;8.820;2023-04-26T00:07:57;97171.66;;;5.64;100.00
70968;BME280;58629;48.808;8.820;2023-04-26T00:10:22;97164.13;;;5.59;100.00
70968;BME280;58629;48.808;8.820;2023-04-26T00:12:47;97172.00;;;5.52;100.00
70968;BME280;58629;48.808;8.820;2023-04-26T00:15:13;97170.88;;;5.53;100.00
70968;BME280;58629;48.808;8.820;2023-04-26T00:17:38;97178.75;;;5.53;100.00
70968;BME280;58629;48.808;8.820;2023-04-26T00:20:04;97178.34;;;5.47;100.00
70968;BME280;58629;48.808;8.820;2023-04-26T00:22:33;97180.97;;;5.51;100.00
70968;BME280;58629;48.808;8.820;2023-04-26T00:24:58;97173.09;;;5.44;100.00
70968;BME280;58629;48.808;8.820;2023-04-26T00:27:24;97182.47;;;5.38;99.79
70968;BME280;58629;48.808;8.820;2023-04-26T00:29:49;97177.94;;;5.31;100.00
70968;BME280;58629;48.808;8.820;2023-04-26T00:32:14;97178.28;;;5.22;99.85
70968;BME280;58629;48.808;8.820;2023-04-26T00:34:40;97172.63;;;5.17;99.77
70968;BME280;58629;48.808;8.820;2023-04-26T00:37:05;97170.75;;;5.17;100.00
70968;BME280;58629;48.808;8.820;2023-04-26T00:39:30;97173.03;;;5.26;100.00
70968;BME280;58629;48.808;8.820;2023-04-26T00:41:56;97170.78;;;5.24;100.00
70968;BME280;58629;48.808;8.820;2023-04-26T00:44:21;97169.28;;;5.27;100.00
70968;BME280;58629;48.808;8.820;2023-04-26T00:46:48;97168.56;;;5.30;100.00
70968;BME280;58629;48.808;8.820;2023-04-26T00:49:18;97156.53;;;5.29;100.00
70968;BME280;58629;48.808;8.820;2023-04-26T00:51:46;97165.94;;;5.26;100.00
70968;BME280;58629;48.808;8.820;2023-04-26T00:54:12;97174.19;;;5.28;100.00
70968;BME280;58629;48.808;8.820;2023-04-26T00:56:38;97171.53;;;5.25;100.00
70968;BME280;58629;48.808;8.820;2023-04-26T00:59:04;97171.91;;;5.20;100.00
70968;BME280;58629;48.808;8.820;2023-04-26T01:01:29;97171.53;;;5.21;100.00
70968;BME280;58629;48.808;8.820;2023-04-26T01:03:55;97164.75;;;5.17;100.00
70968;BME280;58629;48.808;8.820;2023-04-26T01:06:21;97173.00;;;5.15;100.00
70968;BME280;58629;48.808;8.820;2023-04-26T01:08:48;97171.81;;;4.99;98.98
70968;BME280;58629;48.808;8.820;2023-04-26T01:11:16;97171.38;;;4.86;98.63
70968;BME280;58629;48.808;8.820;2023-04-26T01:13:42;97172.84;;;4.80;99.57
70968;BME280;58629;48.808;8.820;2023-04-26T01:16:07;97172.06;;;4.76;98.52
70968;BME280;58629;48.808;8.820;2023-04-26T01:18:33;97170.91;;;4.70;98.30
70968;BME280;58629;48.808;8.820;2023-04-26T01:20:59;97173.09;;;4.61;99.18
70968;BME280;58629;48.808;8.820;2023-04-26T01:23:24;97169.63;;;4.43;97.80
70968;BME280;58629;48.808;8.820;2023-04-26T01:25:50;97166.06;;;4.18;99.16
70968;BME280;58629;48.808;8.820;2023-04-26T01:28:15;97166.41;;;4.16;100.00
70968;BME280;58629;48.808;8.820;2023-04-26T01:30:40;97167.16;;;4.13;100.00
70968;BME280;58629;48.808;8.820;2023-04-26T01:33:06;97163.81;;;4.20;100.00
70968;BME280;58629;48.808;8.820;2023-04-26T01:35:31;97162.03;;;4.31;100.00
70968;BME280;58629;48.808;8.820;2023-04-26T01:37:57;97160.22;;;4.38;100.00
70968;BME280;58629;48.808;8.820;2023-04-26T01:40:22;97155.03;;;4.46;100.00
70968;BME280;58629;48.808;8.820;2023-04-26T01:42:48;97161.03;;;4.50;100.00
70968;BME280;58629;48.808;8.820;2023-04-26T01:45:13;97154.31;;;4.52;100.00
70968;BME280;58629;48.808;8.820;2023-04-26T01:47:38;97145.72;;;4.55;100.00
70968;BME280;58629;48.808;8.820;2023-04-26T01:50:04;97150.19;;;4.55;100.00
70968;BME280;58629;48.808;8.820;2023-04-26T01:52:30;97153.91;;;4.47;100.00
70968;BME280;58629;48.808;8.820;2023-04-26T01:54:55;97154.44;;;4.19;98.60
70968;BME280;58629;48.808;8.820;2023-04-26T01:57:21;97153.50;;;3.94;99.58
70968;BME280;58629;48.808;8.820;2023-04-26T01:59:46;97155.88;;;3.66;100.00
70968;BME280;58629;48.808;8.820;2023-04-26T02:02:11;97159.25;;;3.66;100.00
70968;BME280;58629;48.808;8.820;2023-04-26T02:04:37;97158.47;;;3.62;100.00
70968;BME280;58629;48.808;8.820;2023-04-26T02:07:02;97165.88;;;3.57;100.00
70968;BME280;58629;48.808;8.820;2023-04-26T02:09:27;97162.41;;;3.45;100.00
70968;BME280;58629;48.808;8.820;2023-04-26T02:11:53;97164.59;;;3.40;100.00
70968;BME280;58629;48.808;8.820;2023-04-26T02:14:18;97172.75;;;3.35;100.00
70968;BME280;58629;48.808;8.820;2023-04-26T02:16:44;97168.94;;;3.29;100.00
70968;BME280;58629;48.808;8.820;2023-04-26T02:19:09;97166.31;;;3.29;100.00
70968;BME280;58629;48.808;8.820;2023-04-26T02:21:54;97175.28;;;3.28;100.00
70968;BME280;58629;48.808;8.820;2023-04-26T02:24:20;97174.53;;;3.27;100.00
70968;BME280;58629;48.808;8.820;2023-04-26T02:26:45;97177.19;;;3.31;100.00
70968;BME280;58629;48.808;8.820;2023-04-26T02:29:10;97173.19;;;3.40;100.00
70968;BME280;58629;48.808;8.820;2023-04-26T02:31:36;97165.84;;;3.53;100.00
70968;BME280;58629;48.808;8.820;2023-04-26T02:34:01;97168.16;;;3.62;100.00
70968;BME280;58629;48.808;8.820;2023-04-26T02:36:26;97162.97;;;3.65;100.00
70968;BME280;58629;48.808;8.820;2023-04-26T02:38:53;97172.41;;;3.73;100.00
70968;BME280;58629;48.808;8.820;2023-04-26T02:41:18;97169.41;;;3.75;100.00
70968;BME280;58629;48.808;8.820;2023-04-26T02:43:43;97167.94;;;3.77;100.00
70968;BME280;58629;48.808;8.820;2023-04-26T02:46:08;97166.09;;;3.78;100.00
70968;BME280;58629;48.808;8.820;2023-04-26T02:48:34;97166.09;;;3.78;100.00
70968;BME280;58629;48.808;8.820;2023-04-26T02:51:00;97166.47;;;3.76;100.00
70968;BME280;58629;48.808;8.820;2023-04-26T02:53:25;97168.28;;;3.72;100.00
70968;BME280;58629;48.808;8.820;2023-04-26T02:55:50;97164.16;;;3.71;100.00
70968;BME280;58629;48.808;8.820;2023-04-26T02:58:15;97164.94;;;3.75;100.00
70968;BME280;58629;48.808;8.820;2023-04-26T03:00:45;97174.34;;;3.80;100.00
70968;BME280;58629;48.808;8.820;2023-04-26T03:03:11;97170.16;;;3.75;100.00
70968;BME280;58629;48.808;8.820;2023-04-26T03:05:37;97167.56;;;3.75;100.00
70968;BME280;58629;48.808;8.820;2023-04-26T03:08:02;97163.88;;;3.80;100.00
70968;BME280;58629;48.808;8.820;2023-04-26T03:10:27;97169.91;;;3.87;100.00
70968;BME280;58629;48.808;8.820;2023-04-26T03:12:52;97163.91;;;3.87;100.00
70968;BME280;58629;48.808;8.820;2023-04-26T03:15:18;97162.06;;;3.87;100.00
70968;BME280;58629;48.808;8.820;2023-04-26T03:17:43;97173.66;;;3.86;100.00
70968;BME280;58629;48.808;8.820;2023-04-26T03:20:09;97168.41;;;3.86;100.00
70968;BME280;58629;48.808;8.820;2023-04-26T03:22:35;97168.06;;;3.88;100.00
70968;BME280;58629;48.808;8.820;2023-04-26T03:25:00;97160.22;;;3.91;100.00
70968;BME280;58629;48.808;8.820;2023-04-26T03:27:25;97160.97;;;3.92;100.00
70968;BME280;58629;48.808;8.820;2023-04-26T03:29:51;97161.28;;;3.87;100.00
70968;BME280;58629;48.808;8.820;2023-04-26T03:32:16;97157.16;;;3.82;100.00
70968;BME280;58629;48.808;8.820;2023-04-26T03:34:41;97153.44;;;3.87;100.00
70968;BME280;58629;48.808;8.820;2023-04-26T03:37:07;97160.16;;;3.84;100.00
70968;BME280;58629;48.808;8.820;2023-04-26T03:39:32;97158.25;;;3.81;100.00
70968;BME280;58629;48.808;8.820;2023-04-26T03:41:57;97155.19;;;3.72;100.00
70968;BME280;58629;48.808;8.820;2023-04-26T03:44:22;97156.91;;;3.58;100.00
70968;BME280;58629;48.808;8.820;2023-04-26T03:46:48;97153.84;;;3.48;100.00
70968;BME280;58629;48.808;8.820;2023-04-26T03:49:13;97156.00;;;3.43;100.00
70968;BME280;58629;48.808;8.820;2023-04-26T03:51:38;97159.34;;;3.40;100.00
70968;BME280;58629;48.808;8.820;2023-04-26T03:54:04;97168.66;;;3.37;100.00
70968;BME280;58629;48.808;8.820;2023-04-26T03:56:29;97168.25;;;3.32;100.00
70968;BME280;58629;48.808;8.820;2023-04-26T03:58:54;97164.81;;;3.28;100.00
70968;BME280;58629;48.808;8.820;2023-04-26T04:01:19;97166.69;;;3.27;100.00
70968;BME280;58629;48.808;8.820;2023-04-26T04:03:45;97163.69;;;3.29;100.00
70968;BME280;58629;48.808;8.820;2023-04-26T04:06:10;97166.41;;;3.36;100.00
70968;BME280;58629;48.808;8.820;2023-04-26T04:08:36;97171.69;;;3.39;100.00
70968;BME280;58629;48.808;8.820;2023-04-26T04:11:02;97169.47;;;3.41;100.00
70968;BME280;58629;48.808;8.820;2023-04-26T04:13:27;97163.47;;;3.41;100.00
70968;BME280;58629;48.808;8.820;2023-04-26T04:15:52;97157.16;;;3.45;100.00
70968;BME280;58629;48.808;8.820;2023-04-26T04:18:18;97161.31;;;3.50;100.00
70968;BME280;58629;48.808;8.820;2023-04-26T04:20:43;97164.75;;;3.54;100.00
70968;BME280;58629;48.808;8.820;2023-04-26T04:23:09;97165.13;;;3.56;100.00
70968;BME280;58629;48.808;8.820;2023-04-26T04:25:35;97166.63;;;3.57;100.00
70968;BME280;58629;48.808;8.820;2023-04-26T04:28:01;97173.72;;;3.57;100.00
70968;BME280;58629;48.808;8.820;2023-04-26T04:30:27;97170.69;;;3.54;100.00
70968;BME280;58629;48.808;8.820;2023-04-26T04:32:53;97183.75;;;3.51;100.00
70968;BME280;58629;48.808;8.820;2023-04-26T04:35:19;97169.59;;;3.56;100.00
70968;BME280;58629;48.808;8.820;2023-04-26T04:37:44;97173.38;;;3.58;100.00
70968;BME280;58629;48.808;8.820;2023-04-26T04:40:10;97178.63;;;3.58;100.00
70968;BME280;58629;48.808;8.820;2023-04-26T04:42:37;97167.38;;;3.58;100.00
70968;BME280;58629;48.808;8.820;2023-04-26T04:45:02;97178.63;;;3.58;100.00
70968;BME280;58629;48.808;8.820;2023-04-26T04:47:29;97177.19;;;3.64;100.00
70968;BME280;58629;48.808;8.820;2023-04-26T04:49:54;97177.25;;;3.71;100.00
70968;BME280;58629;48.808;8.820;2023-04-26T04:52:19;97182.16;;;3.76;100.00
70968;BME280;58629;48.808;8.820;2023-04-26T04:54:46;97182.19;;;3.80;100.00
70968;BME280;58629;48.808;8.820;2023-04-26T04:57:11;97185.22;;;3.85;100.00
70968;BME280;58629;48.808;8.820;2023-04-26T04:59:38;97184.06;;;4.23;100.00
70968;BME280;58629;48.808;8.820;2023-04-26T05:02:03;97186.25;;;4.72;100.00
70968;BME280;58629;48.808;8.820;2023-04-26T05:04:29;97187.66;;;5.20;100.00
70968;BME280;58629;48.808;8.820;2023-04-26T05:06:58;97193.06;;;5.66;100.00
70968;BME280;58629;48.808;8.820;2023-04-26T05:09:23;97195.75;;;6.04;100.00
70968;BME280;58629;48.808;8.820;2023-04-26T05:11:48;97194.28;;;6.35;100.00
70968;BME280;58629;48.808;8.820;2023-04-26T05:14:14;97198.75;;;6.70;100.00
70968;BME280;58629;48.808;8.820;2023-04-26T05:16:39;97199.16;;;6.54;91.92
70968;BME280;58629;48.808;8.820;2023-04-26T05:19:05;97208.53;;;5.95;93.77
70968;BME280;58629;48.808;8.820;2023-04-26T05:21:30;97203.28;;;6.48;99.12
70968;BME280;58629;48.808;8.820;2023-04-26T05:23:56;97205.91;;;6.76;97.74
70968;BME280;58629;48.808;8.820;2023-04-26T05:26:21;97212.25;;;7.00;95.45
70968;BME280;58629;48.808;8.820;2023-04-26T05:28:46;97211.06;;;7.15;93.31
70968;BME280;58629;48.808;8.820;2023-04-26T05:31:12;97215.84;;;7.41;93.18
70968;BME280;58629;48.808;8.820;2023-04-26T05:33:37;97220.66;;;7.64;91.29
70968;BME280;58629;48.808;8.820;2023-04-26T05:36:02;97215.31;;;7.78;89.52
70968;BME280;58629;48.808;8.820;2023-04-26T05:38:28;97221.56;;;8.05;89.27
70968;BME280;58629;48.808;8.820;2023-04-26T05:40:54;97216.56;;;8.21;87.28
70968;BME280;58629;48.808;8.820;2023-04-26T05:43:19;97214.63;;;8.29;87.06
70968;BME280;58629;48.808;8.820;2023-04-26T05:45:51;97216.59;;;8.18;85.77
70968;BME280;58629;48.808;8.820;2023-04-26T05:48:18;97222.59;;;8.25;85.41
70968;BME280;58629;48.808;8.820;2023-04-26T05:50:44;97214.66;;;8.25;84.60
70968;BME280;58629;48.808;8.820;2023-04-26T05:53:09;97214.28;;;8.27;83.96
70968;BME280;58629;48.808;8.820;2023-04-26T05:55:35;97211.97;;;8.32;84.32
70968;BME280;58629;48.808;8.820;2023-04-26T05:58:00;97212.28;;;8.41;83.44
70968;BME280;58629;48.808;8.820;2023-04-26T06:00:26;97214.50;;;7.84;79.45
70968;BME280;58629;48.808;8.820;2023-04-26T06:02:51;97219.69;;;8.06;83.29
70968;BME280;58629;48.808;8.820;2023-04-26T06:05:17;97216.91;;;8.27;82.82
70968;BME280;58629;48.808;8.820;2023-04-26T06:07:42;97215.66;;;8.42;82.67
70968;BME280;58629;48.808;8.820;2023-04-26T06:10:08;97229.03;;;8.68;83.47
70968;BME280;58629;48.808;8.820;2023-04-26T06:12:34;97225.47;;;8.86;81.87
70968;BME280;58629;48.808;8.820;2023-04-26T06:14:59;97222.31;;;8.98;79.82
70968;BME280;58629;48.808;8.820;2023-04-26T06:17:24;97228.63;;;9.07;80.38
70968;BME280;58629;48.808;8.820;2023-04-26T06:19:50;97231.63;;;9.13;79.28
70968;BME280;58629;48.808;8.820;2023-04-26T06:22:15;97222.13;;;9.15;78.12
70968;BME280;58629;48.808;8.820;2023-04-26T06:24:41;97235.28;;;9.22;77.08
70968;BME280;58629;48.808;8.820;2023-04-26T06:27:06;97238.19;;;9.31;77.19
70968;BME280;58629;48.808;8.820;2023-04-26T06:29:32;97235.94;;;8.96;77.50
70968;BME280;58629;48.808;8.820;2023-04-26T06:31:57;97232.09;;;9.04;77.26
70968;BME280;58629;48.808;8.820;2023-04-26T06:34:23;97237.56;;;9.20;75.69
70968;BME280;58629;48.808;8.820;2023-04-26T06:36:48;97238.19;;;9.31;76.53
70968;BME280;58629;48.808;8.820;2023-04-26T06:39:13;97238.97;;;8.95;75.58
70968;BME280;58629;48.808;8.820;2023-04-26T06:41:38;97232.56;;;9.29;76.48
70968;BME280;58629;48.808;8.820;2023-04-26T06:44:04;97229.81;;;8.62;71.87
70968;BME280;58629;48.808;8.820;2023-04-26T06:46:29;97229.34;;;9.11;76.67
70968;BME280;58629;48.808;8.820;2023-04-26T06:48:54;97230.22;;;9.38;74.60
70968;BME280;58629;48.808;8.820;2023-04-26T06:51:20;97232.47;;;9.70;73.90
70968;BME280;58629;48.808;8.820;2023-04-26T06:53:45;97233.94;;;9.71;71.10
70968;BME280;58629;48.808;8.820;2023-04-26T06:56:12;97227.44;;;10.06;71.32
70968;BME280;58629;48.808;8.820;2023-04-26T06:58:37;97228.72;;;10.24;69.06
70968;BME280;58629;48.808;8.820;2023-04-26T07:01:02;97225.69;;;10.49;69.06
70968;BME280;58629;48.808;8.820;2023-04-26T07:03:29;97222.28;;;10.72;69.53
70968;BME280;58629;48.808;8.820;2023-04-26T07:05:54;97211.25;;;10.96;68.92
70968;BME280;58629;48.808;8.820;2023-04-26T07:08:20;97216.66;;;11.12;66.73
70968;BME280;58629;48.808;8.820;2023-04-26T07:10:46;97221.34;;;11.24;62.44
70968;BME280;58629;48.808;8.820;2023-04-26T07:13:11;97219.91;;;11.20;63.63
70968;BME280;58629;48.808;8.820;2023-04-26T07:15:36;97219.47;;;11.25;63.78
70968;BME280;58629;48.808;8.820;2023-04-26T07:18:02;97223.66;;;11.42;64.31
70968;BME280;58629;48.808;8.820;2023-04-26T07:20:27;97220.91;;;11.65;65.52
70968;BME280;58629;48.808;8.820;2023-04-26T07:22:52;97211.53;;;11.80;62.60
70968;BME280;58629;48.808;8.820;2023-04-26T07:25:17;97218.66;;;11.83;62.68
70968;BME280;58629;48.808;8.820;2023-04-26T07:27:43;97207.50;;;11.92;61.58
70968;BME280;58629;48.808;8.820;2023-04-26T07:30:09;97203.91;;;11.98;59.04
70968;BME280;58629;48.808;8.820;2023-04-26T07:32:35;97204.78;;;12.11;59.16
70968;BME280;58629;48.808;8.820;2023-04-26T07:35:01;97206.28;;;12.29;60.60
70968;BME280;58629;48.808;8.820;2023-04-26T07:37:26;97198.97;;;12.49;60.65
70968;BME280;58629;48.808;8.820;2023-04-26T07:39:52;97200.47;;;12.50;59.84
70968;BME280;58629;48.808;8.820;2023-04-26T07:42:17;97201.28;;;12.63;59.87
70968;BME280;58629;48.808;8.820;2023-04-26T07:44:42;97207.19;;;12.54;55.91
70968;BME280;58629;48.808;8.820;2023-04-26T07:47:11;97201.53;;;12.52;60.01
70968;BME280;58629;48.808;8.820;2023-04-26T07:49:37;97207.09;;;12.09;54.74
70968;BME280;58629;48.808;8.820;2023-04-26T07:52:03;97207.66;;;11.46;55.13
70968;BME280;58629;48.808;8.820;2023-04-26T07:54:28;97218.13;;;11.92;59.55
70968;BME280;58629;48.808;8.820;2023-04-26T07:56:53;97217.72;;;12.09;56.55
70968;BME280;58629;48.808;8.820;2023-04-26T07:59:19;97205.69;;;12.21;57.97
70968;BME280;58629;48.808;8.820;2023-04-26T08:01:44;97217.16;;;12.18;58.20
70968;BME280;58629;48.808;8.820;2023-04-26T08:04:10;97218.13;;;12.24;55.85
70968;BME280;58629;48.808;8.820;2023-04-26T08:06:35;97224.75;;;12.00;55.80
70968;BME280;58629;48.808;8.820;2023-04-26T08:09:02;97222.13;;;12.16;54.25
70968;BME280;58629;48.808;8.820;2023-04-26T08:11:29;97216.91;;;12.29;52.83
70968;BME280;58629;48.808;8.820;2023-04-26T08:13:54;97220.41;;;12.42;54.77
70968;BME280;58629;48.808;8.820;2023-04-26T08:16:19;97221.63;;;12.69;55.55
70968;BME280;58629;48.808;8.820;2023-04-26T08:18:45;97215.47;;;12.56;51.26
70968;BME280;58629;48.808;8.820;2023-04-26T08:21:10;97223.69;;;12.13;48.59
70968;BME280;58629;48.808;8.820;2023-04-26T08:23:36;97224.41;;;11.62;50.30
70968;BME280;58629;48.808;8.820;2023-04-26T08:26:01;97214.66;;;11.56;51.14
70968;BME280;58629;48.808;8.820;2023-04-26T08:28:27;97226.91;;;11.30;51.45
70968;BME280;58629;48.808;8.820;2023-04-26T08:30:52;97221.59;;;11.50;57.05
70968;BME280;58629;48.808;8.820;2023-04-26T08:33:17;97217.75;;;11.54;57.14
70968;BME280;58629;48.808;8.820;2023-04-26T08:35:43;97229.22;;;11.48;58.36
70968;BME280;58629;48.808;8.820;2023-04-26T08:38:08;97230.78;;;11.25;53.04
70968;BME280;58629;48.808;8.820;2023-04-26T08:40:35;97225.03;;;11.30;55.17
70968;BME280;58629;48.808;8.820;2023-04-26T08:43:00;97225.81;;;12.02;54.06
70968;BME280;58629;48.808;8.820;2023-04-26T08:45:26;97223.56;;;11.85;50.15
70968;BME280;58629;48.808;8.820;2023-04-26T08:48:02;97222.81;;;11.84;52.80
70968;BME280;58629;48.808;8.820;2023-04-26T08:50:30;97225.47;;;12.20;55.00
70968;BME280;58629;48.808;8.820;2023-04-26T08:52:55;97224.03;;;12.15;56.17
70968;BME280;58629;48.808;8.820;2023-04-26T08:55:21;97226.53;;;12.23;53.31
70968;BME280;58629;48.808;8.820;2023-04-26T08:57:47;97225.78;;;12.22;51.99
70968;BME280;58629;48.808;8.820;2023-04-26T09:00:13;97218.91;;;11.89;52.38
70968;BME280;58629;48.808;8.820;2023-04-26T09:02:48;97221.06;;;11.58;52.37
70968;BME280;58629;48.808;8.820;2023-04-26T09:05:14;97227.00;;;11.46;59.66
70968;BME280;58629;48.808;8.820;2023-04-26T09:07:40;97222.28;;;11.54;56.84
70968;BME280;58629;48.808;8.820;2023-04-26T09:10:06;97222.44;;;11.66;58.09
70968;BME280;58629;48.808;8.820;2023-04-26T09:12:33;97219.63;;;11.54;54.40
70968;BME280;58629;48.808;8.820;2023-04-26T09:14:59;97219.47;;;10.82;51.27
70968;BME280;58629;48.808;8.820;2023-04-26T09:17:36;97221.44;;;10.98;59.02
70968;BME280;58629;48.808;8.820;2023-04-26T09:22:43;97212.56;;;11.08;51.45
70968;BME280;58629;48.808;8.820;2023-04-26T09:25:09;97215.81;;;11.15;55.02
70968;BME280;58629;48.808;8.820;2023-04-26T09:35:32;97208.00;;;11.08;50.16
70968;BME280;58629;48.808;8.820;2023-04-26T09:38:10;97213.47;;;10.78;50.33
70968;BME280;58629;48.808;8.820;2023-04-26T09:43:15;97204.69;;;10.62;52.02
70968;BME280;58629;48.808;8.820;2023-04-26T09:48:29;97187.88;;;11.70;57.99
70968;BME280;58629;48.808;8.820;2023-04-26T09:51:08;97197.56;;;12.28;55.33
70968;BME280;58629;48.808;8.820;2023-04-26T09:53:39;97199.44;;;12.60;52.16
70968;BME280;58629;48.808;8.820;2023-04-26T09:56:11;97196.66;;;12.95;53.18
70968;BME280;58629;48.808;8.820;2023-04-26T09:58:54;97202.16;;;13.04;52.40
70968;BME280;58629;48.808;8.820;2023-04-26T10:01:24;97195.16;;;13.23;52.91
70968;BME280;58629;48.808;8.820;2023-04-26T10:03:51;97196.56;;;13.15;47.10
70968;BME280;58629;48.808;8.820;2023-04-26T10:06:17;97195.78;;;12.70;46.80
70968;BME280;58629;48.808;8.820;2023-04-26T10:08:43;97190.31;;;12.77;50.06
70968;BME280;58629;48.808;8.820;2023-04-26T10:11:09;97189.47;;;12.64;50.47
70968;BME280;58629;48.808;8.820;2023-04-26T10:13:38;97194.44;;;12.78;52.09
70968;BME280;58629;48.808;8.820;2023-04-26T10:16:05;97199.31;;;12.51;50.85
70968;BME280;58629;48.808;8.820;2023-04-26T10:18:32;97188.94;;;12.24;49.43
70968;BME280;58629;48.808;8.820;2023-04-26T10:21:18;97187.34;;;12.10;50.00
70968;BME280;58629;48.808;8.820;2023-04-26T10:23:46;97186.81;;;11.83;47.58
70968;BME280;58629;48.808;8.820;2023-04-26T10:26:50;97190.34;;;11.21;50.43
70968;BME280;58629;48.808;8.820;2023-04-26T10:29:20;97187.72;;;10.59;54.81
70968;BME280;58629;48.808;8.820;2023-04-26T10:34:27;97192.25;;;10.59;53.72
70968;BME280;58629;48.808;8.820;2023-04-26T10:37:12;97185.03;;;10.82;52.06
70968;BME280;58629;48.808;8.820;2023-04-26T10:39:39;97177.31;;;11.11;52.52
70968;BME280;58629;48.808;8.820;2023-04-26T10:42:27;97181.44;;;11.31;49.96
70968;BME280;58629;48.808;8.820;2023-04-26T10:44:58;97180.34;;;11.29;50.53
70968;BME280;58629;48.808;8.820;2023-04-26T10:47:30;97172.38;;;11.68;51.30
70968;BME280;58629;48.808;8.820;2023-04-26T10:50:05;97181.41;;;11.71;51.16
70968;BME280;58629;48.808;8.820;2023-04-26T10:52:31;97176.06;;;11.55;49.29
70968;BME280;58629;48.808;8.820;2023-04-26T10:54:58;97183.97;;;11.39;52.87
70968;BME280;58629;48.808;8.820;2023-04-26T10:57:51;97177.34;;;10.88;54.08
70968;BME280;58629;48.808;8.820;2023-04-26T11:00:28;97179.78;;;10.79;49.75
70968;BME280;58629;48.808;8.820;2023-04-26T11:03:09;97181.53;;;10.66;53.93
70968;BME280;58629;48.808;8.820;2023-04-26T11:05:50;97177.00;;;10.86;51.84
70968;BME280;58629;48.808;8.820;2023-04-26T11:08:18;97176.69;;;11.03;50.41
70968;BME280;58629;48.808;8.820;2023-04-26T11:10:49;97172.72;;;11.51;50.77
70968;BME280;58629;48.808;8.820;2023-04-26T11:13:15;97160.72;;;11.98;50.12
70968;BME280;58629;48.808;8.820;2023-04-26T11:15:41;97152.84;;;12.87;47.25
70968;BME280;58629;48.808;8.820;2023-04-26T11:18:06;97142.09;;;13.20;46.03
70968;BME280;58629;48.808;8.820;2023-04-26T11:20:32;97143.09;;;13.38;46.40
70968;BME280;58629;48.808;8.820;2023-04-26T11:22:58;97138.41;;;14.05;46.03
70968;BME280;58629;48.808;8.820;2023-04-26T11:25:25;97140.44;;;14.01;44.88
70968;BME280;58629;48.808;8.820;2023-04-26T11:27:58;97133.81;;;14.18;44.34
70968;BME280;58629;48.808;8.820;2023-04-26T11:30:24;97133.00;;;14.55;45.08
70968;BME280;58629;48.808;8.820;2023-04-26T11:32:50;97118.84;;;14.80;45.03
70968;BME280;58629;48.808;8.820;2023-04-26T11:35:15;97106.38;;;15.29;43.93
70968;BME280;58629;48.808;8.820;2023-04-26T11:37:40;97102.84;;;15.54;42.95
70968;BME280;58629;48.808;8.820;2023-04-26T11:40:09;97106.81;;;15.49;42.47
70968;BME280;58629;48.808;8.820;2023-04-26T11:42:35;97096.00;;;15.53;42.91
70968;BME280;58629;48.808;8.820;2023-04-26T11:45:01;97102.63;;;15.79;41.90
70968;BME280;58629;48.808;8.820;2023-04-26T11:47:31;97091.94;;;15.79;43.58
70968;BME280;58629;48.808;8.820;2023-04-26T11:49:57;97095.50;;;15.15;43.55
70968;BME280;58629;48.808;8.820;2023-04-26T11:52:23;97101.41;;;14.88;43.06
70968;BME280;58629;48.808;8.820;2023-04-26T11:54:48;97100.88;;;14.25;40.18
70968;BME280;58629;48.808;8.820;2023-04-26T11:57:17;97107.34;;;14.02;44.79
70968;BME280;58629;48.808;8.820;2023-04-26T11:59:42;97109.03;;;13.96;43.67
70968;BME280;58629;48.808;8.820;2023-04-26T12:02:08;97108.72;;;13.81;43.43
70968;BME280;58629;48.808;8.820;2023-04-26T12:04:35;97104.16;;;13.82;43.93
70968;BME280;58629;48.808;8.820;2023-04-26T12:07:03;97111.16;;;14.14;41.51
70968;BME280;58629;48.808;8.820;2023-04-26T12:09:29;97109.38;;;13.98;43.63
70968;BME280;58629;48.808;8.820;2023-04-26T12:14:32;97101.50;;;13.82;42.16
70968;BME280;58629;48.808;8.820;2023-04-26T12:17:02;97104.06;;;13.60;43.15
70968;BME280;58629;48.808;8.820;2023-04-26T12:19:34;97106.16;;;13.15;43.52
70968;BME280;58629;48.808;8.820;2023-04-26T12:22:04;97104.75;;;13.11;44.92
70968;BME280;58629;48.808;8.820;2023-04-26T12:24:32;97095.63;;;12.95;43.96
70968;BME280;58629;48.808;8.820;2023-04-26T12:26:59;97102.91;;;12.22;45.74
70968;BME280;58629;48.808;8.820;2023-04-26T12:29:26;97096.25;;;12.30;46.55
70968;BME280;58629;48.808;8.820;2023-04-26T12:31:55;97106.34;;;12.51;47.69
70968;BME280;58629;48.808;8.820;2023-04-26T12:34:20;97109.28;;;12.69;45.13
70968;BME280;58629;48.808;8.820;2023-04-26T12:36:46;97098.72;;;12.81;45.42
70968;BME280;58629;48.808;8.820;2023-04-26T12:39:12;97098.22;;;12.99;46.88
70968;BME280;58629;48.808;8.820;2023-04-26T12:41:40;97093.63;;;13.28;47.99
70968;BME280;58629;48.808;8.820;2023-04-26T12:44:06;97102.03;;;13.52;47.38
70968;BME280;58629;48.808;8.820;2023-04-26T12:46:32;97097.69;;;13.70;46.40
70968;BME280;58629;48.808;8.820;2023-04-26T12:48:57;97092.75;;;13.81;44.90
70968;BME280;58629;48.808;8.820;2023-04-26T12:51:23;97086.56;;;13.84;44.58
70968;BME280;58629;48.808;8.820;2023-04-26T12:53:48;97091.81;;;14.22;45.60
70968;BME280;58629;48.808;8.820;2023-04-26T12:56:14;97081.25;;;14.44;44.72
70968;BME280;58629;48.808;8.820;2023-04-26T12:58:40;97087.81;;;14.52;46.40
70968;BME280;58629;48.808;8.820;2023-04-26T13:01:05;97085.75;;;14.34;42.99
70968;BME280;58629;48.808;8.820;2023-04-26T13:03:30;97086.56;;;13.97;43.37
70968;BME280;58629;48.808;8.820;2023-04-26T13:05:56;97086.31;;;14.29;41.74
70968;BME280;58629;48.808;8.820;2023-04-26T13:08:21;97078.56;;;14.10;42.73
70968;BME280;58629;48.808;8.820;2023-04-26T13:10:48;97079.13;;;13.92;45.22
70968;BME280;58629;48.808;8.820;2023-04-26T13:13:13;97083.75;;;12.87;44.67
70968;BME280;58629;48.808;8.820;2023-04-26T13:15:39;97076.56;;;12.43;49.39
70968;BME280;58629;48.808;8.820;2023-04-26T13:18:04;97078.81;;;12.45;48.35
70968;BME280;58629;48.808;8.820;2023-04-26T13:20:30;97082.72;;;12.69;49.03